Bock, Minnesota
Current Conditions -  °F | °C
As of 11:45 PM on Wednesday 17 Dec 2014 (Local Time) from KJMR Reporting Station
Scattered Clouds Scattered Clouds  
Wind Chill:   Ceiling: Unl
Heat Index:   Visibility: 10mi
Dew Point:   Wind: 0mph
Humidity: 92%   Direction: NA
Pressure: 30.34"   Gusts: NA
Location:  45.78°N, 93.56°W
Report Text: KJMR 180545Z AUTO 00000KT 10SM SCT026 M14/M15 A3034 RMK AO2
Loading
Personal Weather Stations






























Interactive Weather Map New forecast layout! Learn more

10-Day Weather Forecast

Advertisements
Track Severe Weather on mobile